^^
Station Historical Data
Daily Summary for November 9, 2017 Units:  Both    English   Metric
« Previous Day
Next Day »
Daily Weekly Monthly Yearly Custom
  High: Low: Average:
Temperature: TemperatureF °F /  -17.8 °C 67.5 °F /  19.7 °C 76.3 °F /  24.6 °C
Dew Point: DewpointF °F /  -17.8 °C 26.4 °F /  -3.1 °C 36.3 °F /  2.4 °C
Humidity: Humidity% 13% 25%
Wind Speed: WindSpeedMPHmph /  0km/h - 2.6mph /  4.2km/h
Wind Gust: WindSpeedGustMPHmph /  0km/h - -
Wind- - SSW
Pressure: PressureIn in /  0 hPa 29.58 in /  1001.6 hPa -
Precipitation: 0.00 in /  0 mm    
Historical Graphs
 
 
Tabular Data for November 9, 2017
Time Temperature Dew Point Pressure Wind Wind Speed Wind Gust Humidity Rainfall Rate (Hourly) solar Conditions
TemperatureF °F /  -17.8 °C DewpointF °F /  -17.8 °C PressureInin /  0hPa Calm     Humidity% HourlyPrecipInin /  0mm SolarRadiationWatts/m^2 W/m2 Conditions
00:03 74.3 °F /  23.5 °C 35.2 °F /  1.8 °C 29.71in /  1006hPa Calm   2.0mph /  3.2km/h 24% 0.00in /  0mm 0.0 W/m2
00:08 73.9 °F /  23.3 °C 34.9 °F /  1.6 °C 29.71in /  1006hPa Calm   1.0mph /  1.6km/h 24% 0.00in /  0mm 0.0 W/m2
00:13 73.6 °F /  23.1 °C 35.6 °F /  2 °C 29.70in /  1005.6hPa Calm   2.0mph /  3.2km/h 25% 0.00in /  0mm 0.0 W/m2
00:19 73.2 °F /  22.9 °C 35.2 °F /  1.8 °C 29.70in /  1005.6hPa Calm   2.0mph /  3.2km/h 25% 0.00in /  0mm 0.0 W/m2
00:24 72.9 °F /  22.7 °C 35.1 °F /  1.7 °C 29.70in /  1005.6hPa SSW 0.9mph /  1.4km/h 1.0mph /  1.6km/h 25% 0.00in /  0mm 0.0 W/m2
00:29 72.3 °F /  22.4 °C 34.5 °F /  1.4 °C 29.70in /  1005.6hPa South 2.0mph /  3.2km/h 6.0mph /  9.7km/h 25% 0.00in /  0mm 0.0 W/m2
00:34 72.3 °F /  22.4 °C 35.6 °F /  2 °C 29.70in /  1005.6hPa SW 2.0mph /  3.2km/h 2.0mph /  3.2km/h 26% 0.00in /  0mm 0.0 W/m2
00:39 72.3 °F /  22.4 °C 34.5 °F /  1.4 °C 29.70in /  1005.6hPa SW 2.0mph /  3.2km/h 4.0mph /  6.4km/h 25% 0.00in /  0mm 0.0 W/m2
00:44 72.5 °F /  22.5 °C 34.7 °F /  1.5 °C 29.70in /  1005.6hPa South 2.9mph /  4.7km/h 3.0mph /  4.8km/h 25% 0.00in /  0mm 0.0 W/m2
00:49 72.7 °F /  22.6 °C 35.8 °F /  2.1 °C 29.70in /  1005.6hPa SSW 0.9mph /  1.4km/h 5.0mph /  8km/h 26% 0.00in /  0mm 0.0 W/m2
00:54 72.5 °F /  22.5 °C 34.7 °F /  1.5 °C 29.70in /  1005.6hPa SSW 2.9mph /  4.7km/h 6.0mph /  9.7km/h 25% 0.00in /  0mm 0.0 W/m2
00:59 72.3 °F /  22.4 °C 35.6 °F /  2 °C 29.70in /  1005.6hPa SSW 0.9mph /  1.4km/h 6.0mph /  9.7km/h 26% 0.00in /  0mm 0.0 W/m2
01:04 72.3 °F /  22.4 °C 34.5 °F /  1.4 °C 29.70in /  1005.6hPa Calm   2.0mph /  3.2km/h 25% 0.00in /  0mm 0.0 W/m2
01:10 72.1 °F /  22.3 °C 34.3 °F /  1.3 °C 29.69in /  1005.3hPa SW 2.0mph /  3.2km/h 2.0mph /  3.2km/h 25% 0.00in /  0mm 0.0 W/m2
01:15 72.0 °F /  22.2 °C 34.2 °F /  1.2 °C 29.69in /  1005.3hPa Calm   4.0mph /  6.4km/h 25% 0.00in /  0mm 0.0 W/m2
01:20 71.8 °F /  22.1 °C 34.0 °F /  1.1 °C 29.69in /  1005.3hPa SW 0.9mph /  1.4km/h 4.0mph /  6.4km/h 25% 0.00in /  0mm 0.0 W/m2
01:25 71.8 °F /  22.1 °C 34.0 °F /  1.1 °C 29.69in /  1005.3hPa Calm   3.0mph /  4.8km/h 25% 0.00in /  0mm 0.0 W/m2
01:30 71.4 °F /  21.9 °C 34.7 °F /  1.5 °C 29.68in /  1005hPa Calm   1.0mph /  1.6km/h 26% 0.00in /  0mm 0.0 W/m2
01:35 71.2 °F /  21.8 °C 33.6 °F /  0.9 °C 29.68in /  1005hPa SW 0.9mph /  1.4km/h 2.0mph /  3.2km/h 25% 0.00in /  0mm 0.0 W/m2
01:41 71.1 °F /  21.7 °C 33.4 °F /  0.8 °C 29.68in /  1005hPa Calm   2.0mph /  3.2km/h 25% 0.00in /  0mm 0.0 W/m2
01:47 70.9 °F /  21.6 °C 34.3 °F /  1.3 °C 29.68in /  1005hPa SW 0.9mph /  1.4km/h 6.0mph /  9.7km/h 26% 0.00in /  0mm 0.0 W/m2
01:52 70.9 °F /  21.6 °C 35.2 °F /  1.8 °C 29.68in /  1005hPa SSW 0.9mph /  1.4km/h 2.0mph /  3.2km/h 27% 0.00in /  0mm 0.0 W/m2
01:57 70.7 °F /  21.5 °C 35.1 °F /  1.7 °C 29.68in /  1005hPa SSW 0.9mph /  1.4km/h 1.0mph /  1.6km/h 27% 0.00in /  0mm 0.0 W/m2
02:03 70.5 °F /  21.4 °C 35.8 °F /  2.1 °C 29.68in /  1005hPa Calm   1.0mph /  1.6km/h 28% 0.00in /  0mm 0.0 W/m2
02:08 70.5 °F /  21.4 °C 36.7 °F /  2.6 °C 29.68in /  1005hPa Calm   3.0mph /  4.8km/h 29% 0.00in /  0mm 0.0 W/m2
02:13 70.3 °F /  21.3 °C 37.4 °F /  3 °C 29.67in /  1004.6hPa SSW 2.9mph /  4.7km/h 4.0mph /  6.4km/h 30% 0.00in /  0mm 0.0 W/m2
02:18 70.2 °F /  21.2 °C 37.2 °F /  2.9 °C 29.67in /  1004.6hPa SSW 2.0mph /  3.2km/h 4.0mph /  6.4km/h 30% 0.00in /  0mm 0.0 W/m2
02:23 70.2 °F /  21.2 °C 37.2 °F /  2.9 °C 29.67in /  1004.6hPa South 0.9mph /  1.4km/h 4.0mph /  6.4km/h 30% 0.00in /  0mm 0.0 W/m2
02:28 70.0 °F /  21.1 °C 37.0 °F /  2.8 °C 29.67in /  1004.6hPa SSW 4.0mph /  6.4km/h 4.0mph /  6.4km/h 30% 0.00in /  0mm 0.0 W/m2
02:33 70.0 °F /  21.1 °C 37.0 °F /  2.8 °C 29.67in /  1004.6hPa SW 2.0mph /  3.2km/h 5.0mph /  8km/h 30% 0.00in /  0mm 0.0 W/m2
02:38 70.0 °F /  21.1 °C 37.0 °F /  2.8 °C 29.67in /  1004.6hPa SW 6.0mph /  9.7km/h 6.0mph /  9.7km/h 30% 0.00in /  0mm 0.0 W/m2
02:43 69.8 °F /  21 °C 37.0 °F /  2.8 °C 29.67in /  1004.6hPa Calm   3.0mph /  4.8km/h 30% 0.00in /  0mm 0.0 W/m2
02:48 69.8 °F /  21 °C 37.8 °F /  3.2 °C 29.66in /  1004.3hPa Calm   1.0mph /  1.6km/h 31% 0.00in /  0mm 0.0 W/m2
02:54 69.8 °F /  21 °C 37.0 °F /  2.8 °C 29.66in /  1004.3hPa Calm   2.0mph /  3.2km/h 30% 0.00in /  0mm 0.0 W/m2
02:59 69.8 °F /  21 °C 37.0 °F /  2.8 °C 29.66in /  1004.3hPa Calm     30% 0.00in /  0mm 0.0 W/m2
03:04 69.6 °F /  20.9 °C 37.6 °F /  3.1 °C 29.66in /  1004.3hPa South 0.9mph /  1.4km/h 1.0mph /  1.6km/h 31% 0.00in /  0mm 0.0 W/m2
03:09 69.6 °F /  20.9 °C 36.9 °F /  2.7 °C 29.66in /  1004.3hPa Calm   2.0mph /  3.2km/h 30% 0.00in /  0mm 0.0 W/m2
03:14 69.6 °F /  20.9 °C 37.6 °F /  3.1 °C 29.66in /  1004.3hPa Calm   1.0mph /  1.6km/h 31% 0.00in /  0mm 0.0 W/m2
03:19 69.4 °F /  20.8 °C 37.4 °F /  3 °C 29.66in /  1004.3hPa Calm   1.0mph /  1.6km/h 31% 0.00in /  0mm 0.0 W/m2
03:24 69.4 °F /  20.8 °C 37.4 °F /  3 °C 29.66in /  1004.3hPa Calm   2.0mph /  3.2km/h 31% 0.00in /  0mm 0.0 W/m2
03:29 69.4 °F /  20.8 °C 37.4 °F /  3 °C 29.66in /  1004.3hPa Calm   3.0mph /  4.8km/h 31% 0.00in /  0mm 0.0 W/m2
03:34 69.4 °F /  20.8 °C 37.4 °F /  3 °C 29.66in /  1004.3hPa Calm   3.0mph /  4.8km/h 31% 0.00in /  0mm 0.0 W/m2
03:40 69.4 °F /  20.8 °C 37.4 °F /  3 °C 29.66in /  1004.3hPa Calm   2.0mph /  3.2km/h 31% 0.00in /  0mm 0.0 W/m2
03:43 69.4 °F /  20.8 °C 37.4 °F /  3 °C 29.66in /  1004.3hPa Calm   2.0mph /  3.2km/h 31% 0.00in /  0mm 0.0 W/m2
03:48 69.6 °F /  20.9 °C 37.6 °F /  3.1 °C 29.65in /  1003.9hPa Calm   1.0mph /  1.6km/h 31% 0.00in /  0mm 0.0 W/m2
03:53 69.6 °F /  20.9 °C 38.5 °F /  3.6 °C 29.65in /  1003.9hPa Calm     32% 0.00in /  0mm 0.0 W/m2
03:58 69.6 °F /  20.9 °C 37.6 °F /  3.1 °C 29.65in /  1003.9hPa Calm     31% 0.00in /  0mm 0.0 W/m2
04:03 69.6 °F /  20.9 °C 37.6 °F /  3.1 °C 29.65in /  1003.9hPa Calm   2.0mph /  3.2km/h 31% 0.00in /  0mm 0.0 W/m2
04:08 69.6 °F /  20.9 °C 37.6 °F /  3.1 °C 29.65in /  1003.9hPa Calm   2.0mph /  3.2km/h 31% 0.00in /  0mm 0.0 W/m2
04:13 69.6 °F /  20.9 °C 37.6 °F /  3.1 °C 29.65in /  1003.9hPa Calm   1.0mph /  1.6km/h 31% 0.00in /  0mm 0.0 W/m2
04:19 69.8 °F /  21 °C 37.8 °F /  3.2 °C 29.65in /  1003.9hPa Calm   3.0mph /  4.8km/h 31% 0.00in /  0mm 0.0 W/m2
04:24 69.8 °F /  21 °C 37.8 °F /  3.2 °C 29.65in /  1003.9hPa SSW 2.0mph /  3.2km/h 3.0mph /  4.8km/h 31% 0.00in /  0mm 0.0 W/m2
04:29 69.8 °F /  21 °C 37.8 °F /  3.2 °C 29.65in /  1003.9hPa South 0.9mph /  1.4km/h 4.0mph /  6.4km/h 31% 0.00in /  0mm 0.0 W/m2
04:34 69.8 °F /  21 °C 37.8 °F /  3.2 °C 29.65in /  1003.9hPa Calm   2.0mph /  3.2km/h 31% 0.00in /  0mm 0.0 W/m2
04:39 69.6 °F /  20.9 °C 37.6 °F /  3.1 °C 29.65in /  1003.9hPa Calm   1.0mph /  1.6km/h 31% 0.00in /  0mm 0.0 W/m2
04:44 69.6 °F /  20.9 °C 37.6 °F /  3.1 °C 29.65in /  1003.9hPa Calm   2.0mph /  3.2km/h 31% 0.00in /  0mm 0.0 W/m2
04:49 69.4 °F /  20.8 °C 37.4 °F /  3 °C 29.65in /  1003.9hPa SSW 4.0mph /  6.4km/h 4.0mph /  6.4km/h 31% 0.00in /  0mm 0.0 W/m2
04:54 69.4 °F /  20.8 °C 36.7 °F /  2.6 °C 29.65in /  1003.9hPa SW 0.9mph /  1.4km/h 5.0mph /  8km/h 30% 0.00in /  0mm 0.0 W/m2
04:59 69.6 °F /  20.9 °C 36.9 °F /  2.7 °C 29.65in /  1003.9hPa Calm   3.0mph /  4.8km/h 30% 0.00in /  0mm 0.0 W/m2
05:05 69.8 °F /  21 °C 37.0 °F /  2.8 °C 29.65in /  1003.9hPa South 0.9mph /  1.4km/h 6.0mph /  9.7km/h 30% 0.00in /  0mm 0.0 W/m2
05:10 70.0 °F /  21.1 °C 37.0 °F /  2.8 °C 29.65in /  1003.9hPa Calm   1.0mph /  1.6km/h 30% 0.00in /  0mm 0.0 W/m2
05:12 70.0 °F /  21.1 °C 37.0 °F /  2.8 °C 29.65in /  1003.9hPa Calm     30% 0.00in /  0mm 0.0 W/m2
05:19 69.8 °F /  21 °C 37.0 °F /  2.8 °C 29.65in /  1003.9hPa SE 2.0mph /  3.2km/h 3.0mph /  4.8km/h 30% 0.00in /  0mm 0.0 W/m2
05:24 69.8 °F /  21 °C 37.0 °F /  2.8 °C 29.65in /  1003.9hPa Calm   4.0mph /  6.4km/h 30% 0.00in /  0mm 0.0 W/m2
05:29 69.8 °F /  21 °C 37.0 °F /  2.8 °C 29.65in /  1003.9hPa SW 0.9mph /  1.4km/h 5.0mph /  8km/h 30% 0.00in /  0mm 0.0 W/m2
05:40 70.0 °F /  21.1 °C 37.0 °F /  2.8 °C 29.65in /  1003.9hPa South 2.0mph /  3.2km/h 3.0mph /  4.8km/h 30% 0.00in /  0mm 0.0 W/m2
05:44 70.0 °F /  21.1 °C 37.0 °F /  2.8 °C 29.65in /  1003.9hPa South 0.9mph /  1.4km/h 6.0mph /  9.7km/h 30% 0.00in /  0mm 0.0 W/m2
05:49 70.0 °F /  21.1 °C 37.0 °F /  2.8 °C 29.64in /  1003.6hPa SSW 2.9mph /  4.7km/h 8.0mph /  12.9km/h 30% 0.00in /  0mm 0.0 W/m2
05:54 70.2 °F /  21.2 °C 37.2 °F /  2.9 °C 29.65in /  1003.9hPa SSW 2.9mph /  4.7km/h 6.0mph /  9.7km/h 30% 0.00in /  0mm 0.0 W/m2
05:59 70.2 °F /  21.2 °C 37.2 °F /  2.9 °C 29.65in /  1003.9hPa SSE 2.9mph /  4.7km/h 3.0mph /  4.8km/h 30% 0.00in /  0mm 0.0 W/m2
06:04 70.0 °F /  21.1 °C 37.9 °F /  3.3 °C 29.65in /  1003.9hPa SSW 2.9mph /  4.7km/h 3.0mph /  4.8km/h 31% 0.00in /  0mm 0.0 W/m2
06:06 70.0 °F /  21.1 °C 37.0 °F /  2.8 °C 29.65in /  1003.9hPa SSW 2.0mph /  3.2km/h 2.0mph /  3.2km/h 30% 0.00in /  0mm 0.0 W/m2
06:11 70.0 °F /  21.1 °C 37.9 °F /  3.3 °C 29.65in /  1003.9hPa SSE 0.9mph /  1.4km/h 3.0mph /  4.8km/h 31% 0.00in /  0mm 11.0 W/m2
06:12 69.8 °F /  21 °C 37.8 °F /  3.2 °C 29.65in /  1003.9hPa Calm   3.0mph /  4.8km/h 31% 0.00in /  0mm 11.0 W/m2
06:17 69.8 °F /  21 °C 37.0 °F /  2.8 °C 29.65in /  1003.9hPa Calm   5.0mph /  8km/h 30% 0.00in /  0mm 18.0 W/m2
06:22 69.8 °F /  21 °C 37.0 °F /  2.8 °C 29.65in /  1003.9hPa Calm   5.0mph /  8km/h 30% 0.00in /  0mm 25.0 W/m2
06:28 70.0 °F /  21.1 °C 37.0 °F /  2.8 °C 29.65in /  1003.9hPa Calm   3.0mph /  4.8km/h 30% 0.00in /  0mm 32.0 W/m2
06:33 70.0 °F /  21.1 °C 36.3 °F /  2.4 °C 29.65in /  1003.9hPa Calm   4.0mph /  6.4km/h 29% 0.00in /  0mm 40.0 W/m2
06:38 70.2 °F /  21.2 °C 36.5 °F /  2.5 °C 29.65in /  1003.9hPa South 0.9mph /  1.4km/h 5.0mph /  8km/h 29% 0.00in /  0mm 51.0 W/m2
06:43 70.3 °F /  21.3 °C 37.4 °F /  3 °C 29.66in /  1004.3hPa Calm   4.0mph /  6.4km/h 30% 0.00in /  0mm 58.0 W/m2
06:48 70.5 °F /  21.4 °C 36.7 °F /  2.6 °C 29.66in /  1004.3hPa South 2.0mph /  3.2km/h 7.0mph /  11.3km/h 29% 0.00in /  0mm 65.0 W/m2
06:53 71.1 °F /  21.7 °C 37.2 °F /  2.9 °C 29.66in /  1004.3hPa Calm   3.0mph /  4.8km/h 29% 0.00in /  0mm 77.0 W/m2
06:55 71.1 °F /  21.7 °C 37.2 °F /  2.9 °C 29.66in /  1004.3hPa South 2.9mph /  4.7km/h 4.0mph /  6.4km/h 29% 0.00in /  0mm 79.0 W/m2
07:00 71.4 °F /  21.9 °C 37.6 °F /  3.1 °C 29.66in /  1004.3hPa Calm   3.0mph /  4.8km/h 29% 0.00in /  0mm 93.0 W/m2
07:05 72.0 °F /  22.2 °C 37.0 °F /  2.8 °C 29.67in /  1004.6hPa Calm   3.0mph /  4.8km/h 28% 0.00in /  0mm 116.0 W/m2
07:10 72.5 °F /  22.5 °C 37.6 °F /  3.1 °C 29.67in /  1004.6hPa Calm   3.0mph /  4.8km/h 28% 0.00in /  0mm 125.0 W/m2
07:15 72.9 °F /  22.7 °C 36.9 °F /  2.7 °C 29.67in /  1004.6hPa SSE 4.0mph /  6.4km/h 5.0mph /  8km/h 27% 0.00in /  0mm 98.0 W/m2
07:21 73.2 °F /  22.9 °C 37.2 °F /  2.9 °C 29.68in /  1005hPa South 4.9mph /  7.9km/h 9.0mph /  14.5km/h 27% 0.00in /  0mm 83.0 W/m2
07:26 73.2 °F /  22.9 °C 37.2 °F /  2.9 °C 29.68in /  1005hPa SSE 6.0mph /  9.7km/h 9.0mph /  14.5km/h 27% 0.00in /  0mm 79.0 W/m2
07:31 73.2 °F /  22.9 °C 38.1 °F /  3.4 °C 29.68in /  1005hPa ESE 2.9mph /  4.7km/h 10.0mph /  16.1km/h 28% 0.00in /  0mm 84.0 W/m2
07:36 73.0 °F /  22.8 °C 38.8 °F /  3.8 °C 29.68in /  1005hPa South 4.0mph /  6.4km/h 7.0mph /  11.3km/h 29% 0.00in /  0mm 84.0 W/m2
07:41 73.0 °F /  22.8 °C 38.8 °F /  3.8 °C 29.68in /  1005hPa ESE 4.0mph /  6.4km/h 6.0mph /  9.7km/h 29% 0.00in /  0mm 237.0 W/m2
07:46 73.0 °F /  22.8 °C 38.8 °F /  3.8 °C 29.68in /  1005hPa ENE 2.0mph /  3.2km/h 5.0mph /  8km/h 29% 0.00in /  0mm 90.0 W/m2
07:51 73.0 °F /  22.8 °C 38.8 °F /  3.8 °C 29.68in /  1005hPa SE 8.9mph /  14.3km/h 9.0mph /  14.5km/h 29% 0.00in /  0mm 107.0 W/m2
07:56 73.0 °F /  22.8 °C 38.8 °F /  3.8 °C 29.68in /  1005hPa SSE 2.0mph /  3.2km/h 8.0mph /  12.9km/h 29% 0.00in /  0mm 287.0 W/m2
08:02 73.2 °F /  22.9 °C 39.0 °F /  3.9 °C 29.68in /  1005hPa South 0.9mph /  1.4km/h 5.0mph /  8km/h 29% 0.00in /  0mm 350.0 W/m2
08:07 73.8 °F /  23.2 °C 38.7 °F /  3.7 °C 29.68in /  1005hPa South 4.9mph /  7.9km/h 6.0mph /  9.7km/h 28% 0.00in /  0mm 251.0 W/m2
08:12 73.8 °F /  23.2 °C 38.7 °F /  3.7 °C 29.67in /  1004.6hPa Calm   6.0mph /  9.7km/h 28% 0.00in /  0mm 283.0 W/m2
08:17 73.9 °F /  23.3 °C 39.7 °F /  4.3 °C 29.67in /  1004.6hPa South 4.0mph /  6.4km/h 4.0mph /  6.4km/h 29% 0.00in /  0mm 241.0 W/m2
08:22 74.7 °F /  23.7 °C 39.4 °F /  4.1 °C 29.67in /  1004.6hPa SSE 8.1mph /  13km/h 10.0mph /  16.1km/h 28% 0.00in /  0mm 515.0 W/m2
08:28 75.0 °F /  23.9 °C 38.8 °F /  3.8 °C 29.67in /  1004.6hPa Calm   8.0mph /  12.9km/h 27% 0.00in /  0mm 142.0 W/m2
08:33 74.8 °F /  23.8 °C 39.6 °F /  4.2 °C 29.67in /  1004.6hPa Calm   12.0mph /  19.3km/h 28% 0.00in /  0mm 167.0 W/m2
08:38 75.2 °F /  24 °C 39.9 °F /  4.4 °C 29.67in /  1004.6hPa SE 4.9mph /  7.9km/h 10.0mph /  16.1km/h 28% 0.00in /  0mm 578.0 W/m2
08:43 75.7 °F /  24.3 °C 40.3 °F /  4.6 °C 29.67in /  1004.6hPa SE 4.0mph /  6.4km/h 6.0mph /  9.7km/h 28% 0.00in /  0mm 589.0 W/m2
08:49 76.5 °F /  24.7 °C 39.9 °F /  4.4 °C 29.67in /  1004.6hPa SSW 0.9mph /  1.4km/h 9.0mph /  14.5km/h 27% 0.00in /  0mm 606.0 W/m2
08:54 76.8 °F /  24.9 °C 40.3 °F /  4.6 °C 29.67in /  1004.6hPa South 6.9mph /  11.1km/h 7.0mph /  11.3km/h 27% 0.00in /  0mm 617.0 W/m2
09:00 77.5 °F /  25.3 °C 39.9 °F /  4.4 °C 29.67in /  1004.6hPa SSE 2.9mph /  4.7km/h 9.0mph /  14.5km/h 26% 0.00in /  0mm 652.0 W/m2
09:05 78.1 °F /  25.6 °C 39.4 °F /  4.1 °C 29.67in /  1004.6hPa SSW 2.0mph /  3.2km/h 8.0mph /  12.9km/h 25% 0.00in /  0mm 663.0 W/m2
09:10 78.4 °F /  25.8 °C 39.7 °F /  4.3 °C 29.67in /  1004.6hPa SE 4.0mph /  6.4km/h 10.0mph /  16.1km/h 25% 0.00in /  0mm 680.0 W/m2
09:15 79.0 °F /  26.1 °C 39.2 °F /  4 °C 29.67in /  1004.6hPa South 2.9mph /  4.7km/h 8.0mph /  12.9km/h 24% 0.00in /  0mm 687.0 W/m2
09:20 79.3 °F /  26.3 °C 38.3 °F /  3.5 °C 29.67in /  1004.6hPa SE 2.9mph /  4.7km/h 7.0mph /  11.3km/h 23% 0.00in /  0mm 715.0 W/m2
09:25 79.9 °F /  26.6 °C 38.8 °F /  3.8 °C 29.67in /  1004.6hPa East 2.0mph /  3.2km/h 6.0mph /  9.7km/h 23% 0.00in /  0mm 722.0 W/m2
09:30 80.1 °F /  26.7 °C 37.8 °F /  3.2 °C 29.68in /  1005hPa SE 6.0mph /  9.7km/h 8.0mph /  12.9km/h 22% 0.00in /  0mm 731.0 W/m2
09:35 80.1 °F /  26.7 °C 38.8 °F /  3.8 °C 29.67in /  1004.6hPa SSE 2.9mph /  4.7km/h 9.0mph /  14.5km/h 23% 0.00in /  0mm 749.0 W/m2
09:41 80.6 °F /  27 °C 37.0 °F /  2.8 °C 29.67in /  1004.6hPa SSW 0.9mph /  1.4km/h 10.0mph /  16.1km/h 21% 0.00in /  0mm 775.0 W/m2
09:46 80.4 °F /  26.9 °C 38.1 °F /  3.4 °C 29.67in /  1004.6hPa South 2.0mph /  3.2km/h 9.0mph /  14.5km/h 22% 0.00in /  0mm 793.0 W/m2
09:51 80.6 °F /  27 °C 37.0 °F /  2.8 °C 29.67in /  1004.6hPa SSE 4.0mph /  6.4km/h 11.0mph /  17.7km/h 21% 0.00in /  0mm 817.0 W/m2
09:56 81.0 °F /  27.2 °C 36.1 °F /  2.3 °C 29.67in /  1004.6hPa ESE 2.0mph /  3.2km/h 13.0mph /  20.9km/h 20% 0.00in /  0mm 863.0 W/m2
10:01 81.3 °F /  27.4 °C 35.1 °F /  1.7 °C 29.67in /  1004.6hPa ESE 6.0mph /  9.7km/h 10.0mph /  16.1km/h 19% 0.00in /  0mm 742.0 W/m2
10:02 81.3 °F /  27.4 °C 35.1 °F /  1.7 °C 29.67in /  1004.6hPa SE 10.1mph /  16.3km/h 10.1mph /  16.3km/h 19% 0.00in /  0mm 742.0 W/m2
10:07 81.7 °F /  27.6 °C 35.4 °F /  1.9 °C 29.67in /  1004.6hPa SSE 4.0mph /  6.4km/h 9.0mph /  14.5km/h 19% 0.00in /  0mm 464.0 W/m2
10:12 81.3 °F /  27.4 °C 36.5 °F /  2.5 °C 29.67in /  1004.6hPa SE 2.0mph /  3.2km/h 8.0mph /  12.9km/h 20% 0.00in /  0mm 429.0 W/m2
10:17 81.3 °F /  27.4 °C 36.5 °F /  2.5 °C 29.67in /  1004.6hPa South 2.9mph /  4.7km/h 11.0mph /  17.7km/h 20% 0.00in /  0mm 396.0 W/m2
10:22 81.3 °F /  27.4 °C 36.5 °F /  2.5 °C 29.67in /  1004.6hPa SSE 11.0mph /  17.7km/h 12.0mph /  19.3km/h 20% 0.00in /  0mm 443.0 W/m2
10:27 81.7 °F /  27.6 °C 36.7 °F /  2.6 °C 29.67in /  1004.6hPa Calm   6.0mph /  9.7km/h 20% 0.00in /  0mm 1255.0 W/m2
10:33 82.2 °F /  27.9 °C 37.2 °F /  2.9 °C 29.66in /  1004.3hPa South 4.9mph /  7.9km/h 10.0mph /  16.1km/h 20% 0.00in /  0mm 1092.0 W/m2
10:38 83.3 °F /  28.5 °C 35.4 °F /  1.9 °C 29.66in /  1004.3hPa SSW 4.0mph /  6.4km/h 12.0mph /  19.3km/h 18% 0.00in /  0mm 490.0 W/m2
10:48 83.5 °F /  28.6 °C 35.6 °F /  2 °C 29.66in /  1004.3hPa SW 4.0mph /  6.4km/h 6.0mph /  9.7km/h 18% 0.00in /  0mm 457.0 W/m2
10:53 83.5 °F /  28.6 °C 35.6 °F /  2 °C 29.66in /  1004.3hPa SSW 0.9mph /  1.4km/h 16.0mph /  25.7km/h 18% 0.00in /  0mm 540.0 W/m2
10:58 83.8 °F /  28.8 °C 35.8 °F /  2.1 °C 29.66in /  1004.3hPa South 4.9mph /  7.9km/h 11.0mph /  17.7km/h 18% 0.00in /  0mm 1171.0 W/m2
11:03 84.9 °F /  29.4 °C 35.2 °F /  1.8 °C 29.66in /  1004.3hPa South 0.9mph /  1.4km/h 7.0mph /  11.3km/h 17% 0.00in /  0mm 1197.0 W/m2
11:08 85.5 °F /  29.7 °C 34.2 °F /  1.2 °C 29.65in /  1003.9hPa WSW 2.9mph /  4.7km/h 8.0mph /  12.9km/h 16% 0.00in /  0mm 998.0 W/m2
11:14 85.6 °F /  29.8 °C 34.3 °F /  1.3 °C 29.65in /  1003.9hPa SSW 4.0mph /  6.4km/h 4.0mph /  6.4km/h 16% 0.00in /  0mm 701.0 W/m2
11:19 85.8 °F /  29.9 °C 34.5 °F /  1.4 °C 29.65in /  1003.9hPa SW 4.9mph /  7.9km/h 8.0mph /  12.9km/h 16% 0.00in /  0mm 701.0 W/m2
11:24 85.5 °F /  29.7 °C 34.2 °F /  1.2 °C 29.65in /  1003.9hPa SSE 6.0mph /  9.7km/h 10.0mph /  16.1km/h 16% 0.00in /  0mm 438.0 W/m2
11:30 84.7 °F /  29.3 °C 33.6 °F /  0.9 °C 29.65in /  1003.9hPa South 4.0mph /  6.4km/h 8.0mph /  12.9km/h 16% 0.00in /  0mm 390.0 W/m2
11:35 84.4 °F /  29.1 °C 33.3 °F /  0.7 °C 29.65in /  1003.9hPa West 6.0mph /  9.7km/h 6.0mph /  9.7km/h 16% 0.00in /  0mm 367.0 W/m2
11:40 83.7 °F /  28.7 °C 32.7 °F /  0.4 °C 29.65in /  1003.9hPa SW 6.9mph /  11.1km/h 12.0mph /  19.3km/h 16% 0.00in /  0mm 432.0 W/m2
11:45 83.5 °F /  28.6 °C 32.5 °F /  0.3 °C 29.65in /  1003.9hPa SSE 6.9mph /  11.1km/h 8.0mph /  12.9km/h 16% 0.00in /  0mm 454.0 W/m2
11:50 83.5 °F /  28.6 °C 32.5 °F /  0.3 °C 29.65in /  1003.9hPa SE 4.0mph /  6.4km/h 7.0mph /  11.3km/h 16% 0.00in /  0mm 330.0 W/m2
11:55 83.5 °F /  28.6 °C 32.5 °F /  0.3 °C 29.65in /  1003.9hPa SSE 8.1mph /  13km/h 10.0mph /  16.1km/h 16% 0.00in /  0mm 325.0 W/m2
12:00 83.1 °F /  28.4 °C 32.4 °F /  0.2 °C 29.65in /  1003.9hPa ESE 4.0mph /  6.4km/h 7.0mph /  11.3km/h 16% 0.00in /  0mm 306.0 W/m2
12:05 82.9 °F /  28.3 °C 32.2 °F /  0.1 °C 29.65in /  1003.9hPa Calm   4.0mph /  6.4km/h 16% 0.00in /  0mm 311.0 W/m2
12:11 82.8 °F /  28.2 °C 33.4 °F /  0.8 °C 29.65in /  1003.9hPa SSW 4.0mph /  6.4km/h 4.0mph /  6.4km/h 17% 0.00in /  0mm 334.0 W/m2
12:17 82.9 °F /  28.3 °C 32.2 °F /  0.1 °C 29.65in /  1003.9hPa Calm   5.0mph /  8km/h 16% 0.00in /  0mm 471.0 W/m2
12:22 83.5 °F /  28.6 °C 34.2 °F /  1.2 °C 29.64in /  1003.6hPa SE 4.0mph /  6.4km/h 7.0mph /  11.3km/h 17% 0.00in /  0mm 471.0 W/m2
12:27 84.0 °F /  28.9 °C 33.1 °F /  0.6 °C 29.64in /  1003.6hPa SE 0.9mph /  1.4km/h 8.0mph /  12.9km/h 16% 0.00in /  0mm 1266.0 W/m2
12:32 85.3 °F /  29.6 °C 32.4 °F /  0.2 °C 29.64in /  1003.6hPa SSE 6.0mph /  9.7km/h 6.0mph /  9.7km/h 15% 0.00in /  0mm 1385.0 W/m2
12:37 86.2 °F /  30.1 °C 33.1 °F /  0.6 °C 29.63in /  1003.3hPa WSW 4.0mph /  6.4km/h 8.0mph /  12.9km/h 15% 0.00in /  0mm 737.0 W/m2
12:42 86.7 °F /  30.4 °C 33.6 °F /  0.9 °C 29.63in /  1003.3hPa SW 2.0mph /  3.2km/h 8.0mph /  12.9km/h 15% 0.00in /  0mm 737.0 W/m2
12:47 87.3 °F /  30.7 °C 32.2 °F /  0.1 °C 29.63in /  1003.3hPa SSE 2.0mph /  3.2km/h 7.0mph /  11.3km/h 14% 0.00in /  0mm 1211.0 W/m2
12:53 87.4 °F /  30.8 °C 32.4 °F /  0.2 °C 29.63in /  1003.3hPa West 4.9mph /  7.9km/h 6.0mph /  9.7km/h 14% 0.00in /  0mm 758.0 W/m2
12:58 87.3 °F /  30.7 °C 32.2 °F /  0.1 °C 29.63in /  1003.3hPa Calm   5.0mph /  8km/h 14% 0.00in /  0mm 482.0 W/m2
13:03 87.1 °F /  30.6 °C 32.2 °F /  0.1 °C 29.62in /  1002.9hPa Calm   6.0mph /  9.7km/h 14% 0.00in /  0mm 1081.0 W/m2
13:09 87.1 °F /  30.6 °C 33.8 °F /  1 °C 29.62in /  1002.9hPa SW 4.0mph /  6.4km/h 5.0mph /  8km/h 15% 0.00in /  0mm 380.0 W/m2
13:14 86.9 °F /  30.5 °C 33.6 °F /  0.9 °C 29.62in /  1002.9hPa South 2.9mph /  4.7km/h 8.0mph /  12.9km/h 15% 0.00in /  0mm 1267.0 W/m2
13:19 87.3 °F /  30.7 °C 34.0 °F /  1.1 °C 29.62in /  1002.9hPa West 2.0mph /  3.2km/h 3.0mph /  4.8km/h 15% 0.00in /  0mm 1310.0 W/m2
13:24 87.6 °F /  30.9 °C 34.3 °F /  1.3 °C 29.61in /  1002.6hPa West 4.0mph /  6.4km/h 5.0mph /  8km/h 15% 0.00in /  0mm 536.0 W/m2
13:29 87.6 °F /  30.9 °C 34.3 °F /  1.3 °C 29.61in /  1002.6hPa SW 0.9mph /  1.4km/h 6.0mph /  9.7km/h 15% 0.00in /  0mm 452.0 W/m2
13:35 87.3 °F /  30.7 °C 34.0 °F /  1.1 °C 29.61in /  1002.6hPa WNW 2.0mph /  3.2km/h 9.0mph /  14.5km/h 15% 0.00in /  0mm 357.0 W/m2
13:40 86.4 °F /  30.2 °C 33.3 °F /  0.7 °C 29.62in /  1002.9hPa SW 4.9mph /  7.9km/h 13.0mph /  20.9km/h 15% 0.00in /  0mm 306.0 W/m2
13:45 85.5 °F /  29.7 °C 34.2 °F /  1.2 °C 29.61in /  1002.6hPa SW 2.0mph /  3.2km/h 9.0mph /  14.5km/h 16% 0.00in /  0mm 306.0 W/m2
13:51 84.9 °F /  29.4 °C 33.8 °F /  1 °C 29.61in /  1002.6hPa Calm   4.0mph /  6.4km/h 16% 0.00in /  0mm 318.0 W/m2
13:56 84.9 °F /  29.4 °C 33.8 °F /  1 °C 29.61in /  1002.6hPa NNE 2.0mph /  3.2km/h 3.0mph /  4.8km/h 16% 0.00in /  0mm 387.0 W/m2
14:01 85.3 °F /  29.6 °C 32.4 °F /  0.2 °C 29.60in /  1002.3hPa ENE 2.9mph /  4.7km/h 9.0mph /  14.5km/h 15% 0.00in /  0mm 353.0 W/m2
14:07 85.5 °F /  29.7 °C 35.6 °F /  2 °C 29.60in /  1002.3hPa SW 2.0mph /  3.2km/h 2.0mph /  3.2km/h 17% 0.00in /  0mm 411.0 W/m2
14:12 85.6 °F /  29.8 °C 32.7 °F /  0.4 °C 29.60in /  1002.3hPa SW 10.1mph /  16.3km/h 10.1mph /  16.3km/h 15% 0.00in /  0mm 299.0 W/m2
14:17 85.5 °F /  29.7 °C 30.9 °F /  -0.6 °C 29.60in /  1002.3hPa Calm   2.0mph /  3.2km/h 14% 0.00in /  0mm 257.0 W/m2
14:23 85.3 °F /  29.6 °C 34.0 °F /  1.1 °C 29.60in /  1002.3hPa WSW 2.9mph /  4.7km/h 3.0mph /  4.8km/h 16% 0.00in /  0mm 332.0 W/m2
14:28 85.6 °F /  29.8 °C 32.7 °F /  0.4 °C 29.60in /  1002.3hPa SW 4.0mph /  6.4km/h 10.0mph /  16.1km/h 15% 0.00in /  0mm 290.0 W/m2
14:33 85.5 °F /  29.7 °C 30.9 °F /  -0.6 °C 29.59in /  1001.9hPa South 2.9mph /  4.7km/h 3.0mph /  4.8km/h 14% 0.00in /  0mm 313.0 W/m2
14:39 85.6 °F /  29.8 °C 32.7 °F /  0.4 °C 29.60in /  1002.3hPa WSW 2.0mph /  3.2km/h 7.0mph /  11.3km/h 15% 0.00in /  0mm 1055.0 W/m2
14:44 86.4 °F /  30.2 °C 31.5 °F /  -0.3 °C 29.59in /  1001.9hPa East 0.9mph /  1.4km/h 3.0mph /  4.8km/h 14% 0.00in /  0mm 1136.0 W/m2
14:49 86.7 °F /  30.4 °C 31.8 °F /  -0.1 °C 29.59in /  1001.9hPa Calm   4.0mph /  6.4km/h 14% 0.00in /  0mm 295.0 W/m2
14:55 86.4 °F /  30.2 °C 31.5 °F /  -0.3 °C 29.59in /  1001.9hPa SSW 2.0mph /  3.2km/h 6.0mph /  9.7km/h 14% 0.00in /  0mm 276.0 W/m2
15:00 85.8 °F /  29.9 °C 31.1 °F /  -0.5 °C 29.59in /  1001.9hPa WNW 2.9mph /  4.7km/h 6.0mph /  9.7km/h 14% 0.00in /  0mm 213.0 W/m2
15:06 85.6 °F /  29.8 °C 30.9 °F /  -0.6 °C 29.59in /  1001.9hPa SSW 2.0mph /  3.2km/h 6.0mph /  9.7km/h 14% 0.00in /  0mm 214.0 W/m2
15:11 85.5 °F /  29.7 °C 30.9 °F /  -0.6 °C 29.59in /  1001.9hPa SSE 4.0mph /  6.4km/h 8.0mph /  12.9km/h 14% 0.00in /  0mm 332.0 W/m2
15:16 85.8 °F /  29.9 °C 31.1 °F /  -0.5 °C 29.59in /  1001.9hPa West 2.0mph /  3.2km/h 8.0mph /  12.9km/h 14% 0.00in /  0mm 294.0 W/m2
15:21 85.8 °F /  29.9 °C 31.1 °F /  -0.5 °C 29.59in /  1001.9hPa WSW 2.9mph /  4.7km/h 8.0mph /  12.9km/h 14% 0.00in /  0mm 246.0 W/m2
15:27 85.5 °F /  29.7 °C 30.9 °F /  -0.6 °C 29.59in /  1001.9hPa West 2.0mph /  3.2km/h 6.0mph /  9.7km/h 14% 0.00in /  0mm 255.0 W/m2
15:32 85.5 °F /  29.7 °C 30.9 °F /  -0.6 °C 29.59in /  1001.9hPa WSW 2.9mph /  4.7km/h 6.0mph /  9.7km/h 14% 0.00in /  0mm 271.0 W/m2
15:38 85.3 °F /  29.6 °C 32.4 °F /  0.2 °C 29.59in /  1001.9hPa WSW 2.0mph /  3.2km/h 6.0mph /  9.7km/h 15% 0.00in /  0mm 213.0 W/m2
15:43 84.9 °F /  29.4 °C 30.4 °F /  -0.9 °C 29.59in /  1001.9hPa SSW 2.9mph /  4.7km/h 13.0mph /  20.9km/h 14% 0.00in /  0mm 183.0 W/m2
15:48 84.4 °F /  29.1 °C 31.6 °F /  -0.2 °C 29.59in /  1001.9hPa WSW 4.0mph /  6.4km/h 10.0mph /  16.1km/h 15% 0.00in /  0mm 176.0 W/m2
15:53 84.2 °F /  29 °C 31.5 °F /  -0.3 °C 29.59in /  1001.9hPa Calm   7.0mph /  11.3km/h 15% 0.00in /  0mm 172.0 W/m2
15:58 84.0 °F /  28.9 °C 31.5 °F /  -0.3 °C 29.58in /  1001.6hPa SW 4.9mph /  7.9km/h 8.0mph /  12.9km/h 15% 0.00in /  0mm 178.0 W/m2
16:03 83.8 °F /  28.8 °C 31.3 °F /  -0.4 °C 29.59in /  1001.9hPa SSW 4.9mph /  7.9km/h 7.0mph /  11.3km/h 15% 0.00in /  0mm 186.0 W/m2
16:08 83.8 °F /  28.8 °C 27.7 °F /  -2.4 °C 29.59in /  1001.9hPa SSW 2.9mph /  4.7km/h 12.0mph /  19.3km/h 13% 0.00in /  0mm 172.0 W/m2
16:13 83.7 °F /  28.7 °C 27.7 °F /  -2.4 °C 29.59in /  1001.9hPa WNW 4.9mph /  7.9km/h 13.0mph /  20.9km/h 13% 0.00in /  0mm 162.0 W/m2
16:19 83.5 °F /  28.6 °C 29.3 °F /  -1.5 °C 29.59in /  1001.9hPa SW 4.0mph /  6.4km/h 6.0mph /  9.7km/h 14% 0.00in /  0mm 162.0 W/m2
16:24 83.5 °F /  28.6 °C 29.3 °F /  -1.5 °C 29.59in /  1001.9hPa SW 4.0mph /  6.4km/h 10.0mph /  16.1km/h 14% 0.00in /  0mm 160.0 W/m2
16:29 83.5 °F /  28.6 °C 27.5 °F /  -2.5 °C 29.59in /  1001.9hPa WNW 6.9mph /  11.1km/h 10.0mph /  16.1km/h 13% 0.00in /  0mm 167.0 W/m2
16:34 83.3 °F /  28.5 °C 29.1 °F /  -1.6 °C 29.59in /  1001.9hPa WSW 4.0mph /  6.4km/h 9.0mph /  14.5km/h 14% 0.00in /  0mm 165.0 W/m2
16:39 83.1 °F /  28.4 °C 28.9 °F /  -1.7 °C 29.58in /  1001.6hPa SSW 4.9mph /  7.9km/h 10.0mph /  16.1km/h 14% 0.00in /  0mm 160.0 W/m2
16:44 83.1 °F /  28.4 °C 28.9 °F /  -1.7 °C 29.59in /  1001.9hPa SW 0.9mph /  1.4km/h 5.0mph /  8km/h 14% 0.00in /  0mm 153.0 W/m2
16:49 83.1 °F /  28.4 °C 28.9 °F /  -1.7 °C 29.59in /  1001.9hPa WSW 2.9mph /  4.7km/h 5.0mph /  8km/h 14% 0.00in /  0mm 146.0 W/m2
16:54 83.1 °F /  28.4 °C 28.9 °F /  -1.7 °C 29.59in /  1001.9hPa WSW 6.9mph /  11.1km/h 7.0mph /  11.3km/h 14% 0.00in /  0mm 139.0 W/m2
16:59 82.9 °F /  28.3 °C 28.8 °F /  -1.8 °C 29.58in /  1001.6hPa West 2.0mph /  3.2km/h 11.0mph /  17.7km/h 14% 0.00in /  0mm 128.0 W/m2
17:04 82.8 °F /  28.2 °C 28.8 °F /  -1.8 °C 29.58in /  1001.6hPa SW 4.9mph /  7.9km/h 8.0mph /  12.9km/h 14% 0.00in /  0mm 118.0 W/m2
17:09 82.6 °F /  28.1 °C 28.6 °F /  -1.9 °C 29.58in /  1001.6hPa West 6.9mph /  11.1km/h 7.0mph /  11.3km/h 14% 0.00in /  0mm 111.0 W/m2
17:14 82.6 °F /  28.1 °C 28.6 °F /  -1.9 °C 29.58in /  1001.6hPa WNW 2.9mph /  4.7km/h 10.0mph /  16.1km/h 14% 0.00in /  0mm 109.0 W/m2
17:19 82.4 °F /  28 °C 28.4 °F /  -2 °C 29.58in /  1001.6hPa SSW 4.0mph /  6.4km/h 9.0mph /  14.5km/h 14% 0.00in /  0mm 107.0 W/m2
17:25 82.4 °F /  28 °C 28.4 °F /  -2 °C 29.59in /  1001.9hPa SW 2.9mph /  4.7km/h 7.0mph /  11.3km/h 14% 0.00in /  0mm 102.0 W/m2
17:30 82.2 °F /  27.9 °C 28.2 °F /  -2.1 °C 29.59in /  1001.9hPa SW 4.9mph /  7.9km/h 9.0mph /  14.5km/h 14% 0.00in /  0mm 90.0 W/m2
17:35 82.2 °F /  27.9 °C 26.4 °F /  -3.1 °C 29.59in /  1001.9hPa West 2.0mph /  3.2km/h 8.0mph /  12.9km/h 13% 0.00in /  0mm 81.0 W/m2
17:40 82.0 °F /  27.8 °C 28.2 °F /  -2.1 °C 29.59in /  1001.9hPa WSW 2.0mph /  3.2km/h 7.0mph /  11.3km/h 14% 0.00in /  0mm 72.0 W/m2
17:45 82.0 °F /  27.8 °C 28.2 °F /  -2.1 °C 29.59in /  1001.9hPa West 6.9mph /  11.1km/h 10.0mph /  16.1km/h 14% 0.00in /  0mm 62.0 W/m2
17:50 81.9 °F /  27.7 °C 28.0 °F /  -2.2 °C 29.59in /  1001.9hPa WSW 4.0mph /  6.4km/h 9.0mph /  14.5km/h 14% 0.00in /  0mm 63.0 W/m2
17:55 81.9 °F /  27.7 °C 28.0 °F /  -2.2 °C 29.59in /  1001.9hPa SW 2.0mph /  3.2km/h 6.0mph /  9.7km/h 14% 0.00in /  0mm 60.0 W/m2
18:00 81.9 °F /  27.7 °C 28.0 °F /  -2.2 °C 29.59in /  1001.9hPa WSW 2.0mph /  3.2km/h 8.0mph /  12.9km/h 14% 0.00in /  0mm 56.0 W/m2
18:06 81.7 °F /  27.6 °C 29.5 °F /  -1.4 °C 29.59in /  1001.9hPa SW 4.9mph /  7.9km/h 7.0mph /  11.3km/h 15% 0.00in /  0mm 54.0 W/m2
18:11 81.7 °F /  27.6 °C 34.0 °F /  1.1 °C 29.59in /  1001.9hPa WNW 11.0mph /  17.7km/h 11.0mph /  17.7km/h 18% 0.00in /  0mm 46.0 W/m2
18:16 81.3 °F /  27.4 °C 35.1 °F /  1.7 °C 29.60in /  1002.3hPa WNW 2.0mph /  3.2km/h 11.0mph /  17.7km/h 19% 0.00in /  0mm 35.0 W/m2
18:22 81.1 °F /  27.3 °C 36.3 °F /  2.4 °C 29.60in /  1002.3hPa SSW 2.9mph /  4.7km/h 6.0mph /  9.7km/h 20% 0.00in /  0mm 28.0 W/m2
18:28 80.8 °F /  27.1 °C 36.0 °F /  2.2 °C 29.60in /  1002.3hPa West 6.0mph /  9.7km/h 10.0mph /  16.1km/h 20% 0.00in /  0mm 21.0 W/m2
18:33 80.2 °F /  26.8 °C 37.9 °F /  3.3 °C 29.60in /  1002.3hPa West 2.9mph /  4.7km/h 11.0mph /  17.7km/h 22% 0.00in /  0mm 16.0 W/m2
18:38 80.1 °F /  26.7 °C 38.8 °F /  3.8 °C 29.60in /  1002.3hPa West 6.0mph /  9.7km/h 10.0mph /  16.1km/h 23% 0.00in /  0mm 12.0 W/m2
18:43 79.9 °F /  26.6 °C 39.9 °F /  4.4 °C 29.60in /  1002.3hPa SW 4.9mph /  7.9km/h 9.0mph /  14.5km/h 24% 0.00in /  0mm 7.0 W/m2
18:48 79.3 °F /  26.3 °C 40.5 °F /  4.7 °C 29.60in /  1002.3hPa WSW 6.9mph /  11.1km/h 10.0mph /  16.1km/h 25% 0.00in /  0mm 0.0 W/m2
18:53 79.2 °F /  26.2 °C 40.3 °F /  4.6 °C 29.60in /  1002.3hPa South 6.9mph /  11.1km/h 8.0mph /  12.9km/h 25% 0.00in /  0mm 0.0 W/m2
18:58 78.8 °F /  26 °C 39.0 °F /  3.9 °C 29.61in /  1002.6hPa WSW 4.9mph /  7.9km/h 13.0mph /  20.9km/h 24% 0.00in /  0mm 0.0 W/m2
19:03 78.4 °F /  25.8 °C 40.6 °F /  4.8 °C 29.61in /  1002.6hPa West 8.9mph /  14.3km/h 9.0mph /  14.5km/h 26% 0.00in /  0mm 0.0 W/m2
19:09 78.1 °F /  25.6 °C 42.3 °F /  5.7 °C 29.61in /  1002.6hPa WSW 8.1mph /  13km/h 8.1mph /  13km/h 28% 0.00in /  0mm 0.0 W/m2
19:14 77.7 °F /  25.4 °C 42.1 °F /  5.6 °C 29.61in /  1002.6hPa NW 2.9mph /  4.7km/h 11.0mph /  17.7km/h 28% 0.00in /  0mm 0.0 W/m2
19:19 77.4 °F /  25.2 °C 42.6 °F /  5.9 °C 29.61in /  1002.6hPa WSW 11.0mph /  17.7km/h 11.0mph /  17.7km/h 29% 0.00in /  0mm 0.0 W/m2
19:24 77.2 °F /  25.1 °C 42.4 °F /  5.8 °C 29.61in /  1002.6hPa WSW 8.9mph /  14.3km/h 10.0mph /  16.1km/h 29% 0.00in /  0mm 0.0 W/m2
19:29 76.8 °F /  24.9 °C 43.0 °F /  6.1 °C 29.62in /  1002.9hPa West 2.0mph /  3.2km/h 3.0mph /  4.8km/h 30% 0.00in /  0mm 0.0 W/m2
19:35 76.6 °F /  24.8 °C 42.8 °F /  6 °C 29.62in /  1002.9hPa SSW 2.9mph /  4.7km/h 8.0mph /  12.9km/h 30% 0.00in /  0mm 0.0 W/m2
19:40 76.5 °F /  24.7 °C 42.8 °F /  6 °C 29.62in /  1002.9hPa West 2.9mph /  4.7km/h 10.0mph /  16.1km/h 30% 0.00in /  0mm 0.0 W/m2
19:46 76.3 °F /  24.6 °C 43.3 °F /  6.3 °C 29.62in /  1002.9hPa WSW 2.9mph /  4.7km/h 6.0mph /  9.7km/h 31% 0.00in /  0mm 0.0 W/m2
19:51 75.9 °F /  24.4 °C 43.2 °F /  6.2 °C 29.63in /  1003.3hPa WSW 2.9mph /  4.7km/h 10.0mph /  16.1km/h 31% 0.00in /  0mm 0.0 W/m2
19:56 75.7 °F /  24.3 °C 43.7 °F /  6.5 °C 29.63in /  1003.3hPa WSW 4.0mph /  6.4km/h 11.0mph /  17.7km/h 32% 0.00in /  0mm 0.0 W/m2
20:01 75.4 °F /  24.1 °C 43.5 °F /  6.4 °C 29.63in /  1003.3hPa SW 6.0mph /  9.7km/h 9.0mph /  14.5km/h 32% 0.00in /  0mm 0.0 W/m2
20:06 75.0 °F /  23.9 °C 43.9 °F /  6.6 °C 29.64in /  1003.6hPa WSW 12.1mph /  19.5km/h 13.0mph /  20.9km/h 33% 0.00in /  0mm 0.0 W/m2
20:11 74.8 °F /  23.8 °C 43.9 °F /  6.6 °C 29.64in /  1003.6hPa West 0.9mph /  1.4km/h 11.0mph /  17.7km/h 33% 0.00in /  0mm 0.0 W/m2
20:16 74.7 °F /  23.7 °C 43.7 °F /  6.5 °C 29.65in /  1003.9hPa SW 4.0mph /  6.4km/h 6.0mph /  9.7km/h 33% 0.00in /  0mm 0.0 W/m2
20:18 74.7 °F /  23.7 °C 44.4 °F /  6.9 °C 29.64in /  1003.6hPa SW 0.9mph /  1.4km/h 11.0mph /  17.7km/h 34% 0.00in /  0mm 0.0 W/m2
20:23 74.5 °F /  23.6 °C 44.2 °F /  6.8 °C 29.65in /  1003.9hPa Calm   5.0mph /  8km/h 34% 0.00in /  0mm 0.0 W/m2
20:28 74.1 °F /  23.4 °C 43.9 °F /  6.6 °C 29.65in /  1003.9hPa ESE 2.0mph /  3.2km/h 6.0mph /  9.7km/h 34% 0.00in /  0mm 0.0 W/m2
20:33 73.9 °F /  23.3 °C 43.9 °F /  6.6 °C 29.66in /  1004.3hPa SSW 0.9mph /  1.4km/h 8.0mph /  12.9km/h 34% 0.00in /  0mm 0.0 W/m2
20:38 73.9 °F /  23.3 °C 43.9 °F /  6.6 °C 29.66in /  1004.3hPa SW 0.9mph /  1.4km/h 6.0mph /  9.7km/h 34% 0.00in /  0mm 0.0 W/m2
20:43 73.8 °F /  23.2 °C 43.7 °F /  6.5 °C 29.66in /  1004.3hPa Calm   1.0mph /  1.6km/h 34% 0.00in /  0mm 0.0 W/m2
20:49 73.8 °F /  23.2 °C 43.7 °F /  6.5 °C 29.66in /  1004.3hPa Calm   3.0mph /  4.8km/h 34% 0.00in /  0mm 0.0 W/m2
20:54 73.8 °F /  23.2 °C 43.7 °F /  6.5 °C 29.66in /  1004.3hPa Calm     34% 0.00in /  0mm 0.0 W/m2
20:59 73.6 °F /  23.1 °C 43.5 °F /  6.4 °C 29.66in /  1004.3hPa Calm     34% 0.00in /  0mm 0.0 W/m2
21:04 73.6 °F /  23.1 °C 44.2 °F /  6.8 °C 29.66in /  1004.3hPa WNW 0.9mph /  1.4km/h 5.0mph /  8km/h 35% 0.00in /  0mm 0.0 W/m2
21:09 73.2 °F /  22.9 °C 43.2 °F /  6.2 °C 29.67in /  1004.6hPa WNW 2.0mph /  3.2km/h 4.0mph /  6.4km/h 34% 0.00in /  0mm 0.0 W/m2
21:14 73.0 °F /  22.8 °C 43.0 °F /  6.1 °C 29.67in /  1004.6hPa WSW 4.9mph /  7.9km/h 13.0mph /  20.9km/h 34% 0.00in /  0mm 0.0 W/m2
21:19 72.9 °F /  22.7 °C 42.8 °F /  6 °C 29.67in /  1004.6hPa West 4.9mph /  7.9km/h 8.0mph /  12.9km/h 34% 0.00in /  0mm 0.0 W/m2
21:24 72.7 °F /  22.6 °C 42.6 °F /  5.9 °C 29.67in /  1004.6hPa NW 4.0mph /  6.4km/h 11.0mph /  17.7km/h 34% 0.00in /  0mm 0.0 W/m2
21:29 72.3 °F /  22.4 °C 42.4 °F /  5.8 °C 29.67in /  1004.6hPa WNW 2.9mph /  4.7km/h 5.0mph /  8km/h 34% 0.00in /  0mm 0.0 W/m2
21:34 72.0 °F /  22.2 °C 42.1 °F /  5.6 °C 29.67in /  1004.6hPa SW 2.0mph /  3.2km/h 10.0mph /  16.1km/h 34% 0.00in /  0mm 0.0 W/m2
21:39 71.8 °F /  22.1 °C 41.9 °F /  5.5 °C 29.67in /  1004.6hPa West 2.9mph /  4.7km/h 11.0mph /  17.7km/h 34% 0.00in /  0mm 0.0 W/m2
21:45 71.8 °F /  22.1 °C 41.2 °F /  5.1 °C 29.67in /  1004.6hPa WSW 6.9mph /  11.1km/h 13.0mph /  20.9km/h 33% 0.00in /  0mm 0.0 W/m2
21:50 71.6 °F /  22 °C 41.0 °F /  5 °C 29.67in /  1004.6hPa West 6.0mph /  9.7km/h 9.0mph /  14.5km/h 33% 0.00in /  0mm 0.0 W/m2
21:56 71.4 °F /  21.9 °C 41.5 °F /  5.3 °C 29.67in /  1004.6hPa WSW 4.9mph /  7.9km/h 8.0mph /  12.9km/h 34% 0.00in /  0mm 0.0 W/m2
22:01 71.2 °F /  21.8 °C 42.3 °F /  5.7 °C 29.67in /  1004.6hPa West 2.0mph /  3.2km/h 8.0mph /  12.9km/h 35% 0.00in /  0mm 0.0 W/m2
22:06 70.9 °F /  21.6 °C 41.9 °F /  5.5 °C 29.67in /  1004.6hPa WSW 4.0mph /  6.4km/h 6.0mph /  9.7km/h 35% 0.00in /  0mm 0.0 W/m2
22:11 70.7 °F /  21.5 °C 41.7 °F /  5.4 °C 29.67in /  1004.6hPa WSW 2.0mph /  3.2km/h 4.0mph /  6.4km/h 35% 0.00in /  0mm 0.0 W/m2
22:16 70.5 °F /  21.4 °C 41.5 °F /  5.3 °C 29.67in /  1004.6hPa Calm   1.0mph /  1.6km/h 35% 0.00in /  0mm 0.0 W/m2
22:21 70.2 °F /  21.2 °C 41.9 °F /  5.5 °C 29.67in /  1004.6hPa Calm   2.0mph /  3.2km/h 36% 0.00in /  0mm 0.0 W/m2
22:26 70.0 °F /  21.1 °C 41.7 °F /  5.4 °C 29.67in /  1004.6hPa WSW 0.9mph /  1.4km/h 5.0mph /  8km/h 36% 0.00in /  0mm 0.0 W/m2
22:31 69.6 °F /  20.9 °C 40.8 °F /  4.9 °C 29.68in /  1005hPa WNW 2.0mph /  3.2km/h 5.0mph /  8km/h 35% 0.00in /  0mm 0.0 W/m2
22:36 69.6 °F /  20.9 °C 40.8 °F /  4.9 °C 29.68in /  1005hPa West 2.0mph /  3.2km/h 7.0mph /  11.3km/h 35% 0.00in /  0mm 0.0 W/m2
22:43 69.4 °F /  20.8 °C 39.9 °F /  4.4 °C 29.68in /  1005hPa WSW 6.9mph /  11.1km/h 9.0mph /  14.5km/h 34% 0.00in /  0mm 0.0 W/m2
22:48 69.4 °F /  20.8 °C 39.9 °F /  4.4 °C 29.68in /  1005hPa SSW 0.9mph /  1.4km/h 5.0mph /  8km/h 34% 0.00in /  0mm 0.0 W/m2
22:53 69.4 °F /  20.8 °C 39.9 °F /  4.4 °C 29.68in /  1005hPa Calm   8.0mph /  12.9km/h 34% 0.00in /  0mm 0.0 W/m2
22:58 69.3 °F /  20.7 °C 38.8 °F /  3.8 °C 29.68in /  1005hPa West 6.9mph /  11.1km/h 8.0mph /  12.9km/h 33% 0.00in /  0mm 0.0 W/m2
23:03 69.3 °F /  20.7 °C 39.7 °F /  4.3 °C 29.68in /  1005hPa Calm   3.0mph /  4.8km/h 34% 0.00in /  0mm 0.0 W/m2
23:08 69.1 °F /  20.6 °C 38.8 °F /  3.8 °C 29.68in /  1005hPa West 2.9mph /  4.7km/h 3.0mph /  4.8km/h 33% 0.00in /  0mm 0.0 W/m2
23:13 68.7 °F /  20.4 °C 39.2 °F /  4 °C 29.68in /  1005hPa Calm   1.0mph /  1.6km/h 34% 0.00in /  0mm 0.0 W/m2
23:18 68.7 °F /  20.4 °C 38.5 °F /  3.6 °C 29.68in /  1005hPa WSW 2.0mph /  3.2km/h 3.0mph /  4.8km/h 33% 0.00in /  0mm 0.0 W/m2
23:23 68.5 °F /  20.3 °C 38.3 °F /  3.5 °C 29.69in /  1005.3hPa West 0.9mph /  1.4km/h 1.0mph /  1.6km/h 33% 0.00in /  0mm 0.0 W/m2
23:28 68.5 °F /  20.3 °C 38.3 °F /  3.5 °C 29.68in /  1005hPa Calm   3.0mph /  4.8km/h 33% 0.00in /  0mm 0.0 W/m2
23:33 68.4 °F /  20.2 °C 38.1 °F /  3.4 °C 29.68in /  1005hPa Calm   1.0mph /  1.6km/h 33% 0.00in /  0mm 0.0 W/m2
23:39 68.4 °F /  20.2 °C 38.1 °F /  3.4 °C 29.68in /  1005hPa Calm     33% 0.00in /  0mm 0.0 W/m2
23:44 68.2 °F /  20.1 °C 37.9 °F /  3.3 °C 29.68in /  1005hPa Calm     33% 0.00in /  0mm 0.0 W/m2
23:50 67.8 °F /  19.9 °C 38.5 °F /  3.6 °C 29.68in /  1005hPa Calm     34% 0.00in /  0mm 0.0 W/m2
23:55 67.5 °F /  19.7 °C 38.1 °F /  3.4 °C 29.68in /  1005hPa Calm   2.0mph /  3.2km/h 34% 0.00in /  0mm 0.0 W/m2
Olympia, Windhoek, Namibia
Compliments of Weather Underground - 3.25 mb